Flight Track Log - Related Links

Times and Time Zones

All times are in EDT time to prevent confusion due to time zone crossing. See the C-FWOA flight status page for this flight to view local times or setup timezone preferences in your user account.

Time Position Orientation Groundspeed Altitude Reporting Facility
EDT Latitude Longitude Course Direction KTS MPH feet Rate Location/Type
Tue 03:37:38 PM 49.9500 -119.3667 342° North 100 115 2,100  Level Vancouver Center
Tue 03:38:38 PM 49.9833 -119.3833 342° North 120 138 3,000 950 Climbing Vancouver Center
Tue 03:39:38 PM 50.0167 -119.3833 360° North 120 138 4,000 1,000 Climbing Vancouver Center
Tue 03:40:38 PM 50.0500 -119.4000 342° North 120 138 5,000 950 Climbing Vancouver Center
Tue 03:41:38 PM 50.0833 -119.4000 360° North 120 138 5,900 900 Climbing Vancouver Center
Tue 03:42:38 PM 50.1000 -119.4167 327° Northwest 120 138 6,800 950 Climbing Vancouver Center
Tue 03:43:38 PM 50.1333 -119.4500 327° Northwest 120 138 7,800 900 Climbing Vancouver Center
Tue 03:44:38 PM 50.1333 -119.5000 270° West 130 150 8,600 800 Climbing Vancouver Center
Tue 03:45:38 PM 50.1000 -119.5833 238° Southwest 140 161 9,400 800 Climbing Vancouver Center
Tue 03:46:38 PM 50.0833 -119.6167 232° Southwest 140 161 10,200 750 Climbing Vancouver Center
Tue 03:47:38 PM 50.0667 -119.6667 243° Southwest 140 161 10,900 750 Climbing Vancouver Center
Tue 03:48:38 PM 50.0500 -119.7167 243° Southwest 140 161 11,700 600 Climbing Vancouver Center
Tue 03:49:38 PM 50.0333 -119.8000 253° West 140 161 12,100 200 Climbing Vancouver Center
Tue 03:50:38 PM 50.0000 -119.8500 224° Southwest 160 184 12,100  Level Vancouver Center
Tue 03:51:38 PM 49.9833 -119.9000 243° Southwest 160 184 12,100  Level Vancouver Center
Tue 03:52:38 PM 49.9833 -119.9833 270° West 160 184 12,100  Level Vancouver Center
Tue 03:53:38 PM 49.9500 -120.0333 224° Southwest 160 184 12,100  Level Vancouver Center
Tue 03:54:38 PM 49.9333 -120.0833 243° Southwest 160 184 12,100  Level Vancouver Center
Tue 03:55:38 PM 49.9167 -120.1667 253° West 160 184 12,100  Level Vancouver Center
Tue 03:56:38 PM 49.8833 -120.2167 224° Southwest 160 184 12,100  Level Vancouver Center
Tue 03:57:38 PM 49.8667 -120.2833 249° West 160 184 12,100  Level Vancouver Center
Tue 03:58:38 PM 49.8500 -120.3500 249° West 160 184 12,100  Level Vancouver Center
Tue 03:59:38 PM 49.8167 -120.4167 232° Southwest 160 184 12,100  Level Vancouver Center
Tue 04:00:38 PM 49.8000 -120.4667 243° Southwest 160 184 12,100  Level Vancouver Center
Tue 04:01:38 PM 49.8000 -120.5333 270° West 160 184 12,100  Level Vancouver Center
Tue 04:02:38 PM 49.7667 -120.6000 232° Southwest 160 184 12,100  Level Vancouver Center
Tue 04:03:38 PM 49.7500 -120.6500 243° Southwest 160 184 12,100  Level Vancouver Center
Tue 04:04:38 PM 49.7333 -120.7333 253° West 160 184 12,100  Level Vancouver Center
Tue 04:05:38 PM 49.7000 -120.7833 224° Southwest 160 184 12,100  Level Vancouver Center
Tue 04:06:38 PM 49.6833 -120.8333 243° Southwest 160 184 12,100  Level Vancouver Center
Tue 04:07:38 PM 49.6500 -120.8833 224° Southwest 160 184 12,100  Level Vancouver Center
Tue 04:08:38 PM 49.6333 -120.9667 253° West 160 184 12,100  Level Vancouver Center
Tue 04:09:38 PM 49.6000 -121.0167 224° Southwest 160 184 12,100  Level Vancouver Center
Tue 04:10:38 PM 49.5833 -121.0667 243° Southwest 160 184 12,100  Level Vancouver Center
Tue 04:11:38 PM 49.5500 -121.1167 224° Southwest 160 184 12,100 -250 Level Vancouver Center
Tue 04:12:38 PM 49.5333 -121.1833 249° West 170 196 11,600 -450 Descending Vancouver Center
Tue 04:13:38 PM 49.5000 -121.2333 224° Southwest 170 196 11,200 -400 Descending Vancouver Center
Tue 04:14:38 PM 49.4667 -121.2833 224° Southwest 180 207 10,800 -450 Descending Vancouver Center
Tue 04:15:38 PM 49.4333 -121.3667 238° Southwest 180 207 10,300 -500 Descending Vancouver Center
Tue 04:16:38 PM 49.4167 -121.4167 243° Southwest 180 207 9,800 -450 Descending Vancouver Center
Tue 04:17:38 PM 49.3833 -121.4833 232° Southwest 180 207 9,400 -450 Descending Vancouver Center
Tue 04:18:38 PM 49.3500 -121.5500 233° Southwest 180 207 8,900 -500 Descending Vancouver Center
Tue 04:19:38 PM 49.3167 -121.6000 224° Southwest 180 207 8,400 -450 Descending Vancouver Center
Tue 04:20:38 PM 49.2833 -121.6833 239° Southwest 180 207 8,000 -400 Descending Vancouver Center
Tue 04:21:38 PM 49.2500 -121.7333 224° Southwest 180 207 7,600 -450 Descending Vancouver Center
Tue 04:22:38 PM 49.2333 -121.7833 243° Southwest 180 207 7,100 -450 Descending Vancouver Center
Tue 04:23:38 PM 49.2000 -121.8500 233° Southwest 180 207 6,700 -500 Descending Vancouver Center
Tue 04:24:38 PM 49.1833 -121.9333 253° West 180 207 6,100 -550 Descending Vancouver Center
Tue 04:25:38 PM 49.1667 -122.0167 253° West 180 207 5,600 -500 Descending Vancouver Center
Tue 04:26:38 PM 49.1500 -122.0667 243° Southwest 180 207 5,100 -400 Descending Vancouver Center
Tue 04:27:38 PM 49.1667 -122.1333 291° West 180 207 4,800 -450 Descending Vancouver Center
Tue 04:28:38 PM 49.1667 -122.2167 270° West 180 207 4,200 -600 Descending Vancouver Center
Tue 04:29:38 PM 49.1667 -122.3000 270° West 180 207 3,600 -550 Descending Vancouver Center
Tue 04:30:38 PM 49.1833 -122.3667 291° West 170 196 3,100 -550 Descending Vancouver Center
Tue 04:31:38 PM 49.1833 -122.4500 270° West 170 196 2,500 -500 Descending Vancouver Center
Tue 04:32:38 PM 49.1833 -122.5000 270° West 150 173 2,100 -400 Descending Vancouver Center
Tue 04:33:38 PM 49.1833 -122.5500 270° West 120 138 1,700 -400 Descending Vancouver Center
Tue 04:34:38 PM 49.1833 -122.6000 270° West 110 127 1,300 -350 Descending Vancouver Center
Tue 04:35:38 PM 49.2000 -122.6167 327° Northwest 100 115 1,000 -300 Descending Vancouver Center
Tue 04:38:00 PM 49.1791 -122.6978 249° West  Level FlightAware Approximate
Tue 04:45:00 PM 49.2161 -122.7100 249° West  Level Estimated

Login

Don't have an account? Register now (free) for customized features, flight alerts, and more!